Time;durP1;ratioP1;P1;durP2;ratioP2;P2;SDS_P1;SDS_P2;PMS_P1;PMS_P2;Temp;Humidity;BMP_temperature;BMP_pressure;BME280_temperature;BME280_humidity;BME280_pressure;Samples;Min_cycle;Max_cycle;Signal;HPM_P1;HPM_P2
2023/08/02 00:00:35;;;;;;;10.50;4.75;;;15.40;99.90;;;;;;7374791;19;20482;-58
2023/08/02 00:03:02;;;;;;;11.50;5.35;;;15.40;99.90;;;;;;7376503;19;20028;-59
2023/08/02 00:05:29;;;;;;;8.43;5.15;;;15.30;99.90;;;;;;7373298;19;20023;-58
2023/08/02 00:07:56;;;;;;;11.65;5.55;;;15.40;99.90;;;;;;7375195;19;20368;-58
2023/08/02 00:10:23;;;;;;;7.68;5.25;;;15.30;99.90;;;;;;7373510;19;20026;-58
2023/08/02 00:12:51;;;;;;;9.82;6.30;;;15.30;99.90;;;;;;7374325;19;20629;-58
2023/08/02 00:15:18;;;;;;;9.52;5.55;;;15.30;99.90;;;;;;7371219;19;20090;-58
2023/08/02 00:17:44;;;;;;;9.80;5.20;;;15.30;99.90;;;;;;7378428;19;20022;-58
2023/08/02 00:20:11;;;;;;;11.85;6.13;;;15.30;99.90;;;;;;7376099;19;20450;-58
2023/08/02 00:22:37;;;;;;;13.18;6.03;;;15.30;99.90;;;;;;7369404;19;20018;-58
2023/08/02 00:25:04;;;;;;;13.70;6.40;;;15.30;99.90;;;;;;7370917;19;20018;-65
2023/08/02 00:27:30;;;;;;;10.63;5.97;;;15.20;99.90;;;;;;7376438;19;20517;-65
2023/08/02 00:29:56;;;;;;;8.63;5.75;;;15.30;99.90;;;;;;7369298;19;20399;-66
2023/08/02 00:32:23;;;;;;;12.90;5.80;;;15.20;99.90;;;;;;7371240;19;20014;-65
2023/08/02 00:34:54;;;;;;;10.40;5.75;;;15.20;99.90;;;;;;7376118;19;20021;-65
2023/08/02 00:37:24;;;;;;;7.03;5.25;;;15.20;99.90;;;;;;7375056;19;20142;-65
2023/08/02 00:39:52;;;;;;;11.25;5.32;;;15.20;99.90;;;;;;7375681;19;20014;-66
2023/08/02 00:42:19;;;;;;;13.20;6.28;;;15.30;99.90;;;;;;7370208;19;20023;-66
2023/08/02 00:44:46;;;;;;;9.30;5.93;;;15.20;99.90;;;;;;7376993;19;20061;-66
2023/08/02 00:47:12;;;;;;;12.63;5.63;;;15.30;99.90;;;;;;7374883;19;20022;-69
2023/08/02 00:49:38;;;;;;;10.70;6.03;;;15.30;99.90;;;;;;7375749;19;20023;-66
2023/08/02 00:52:05;;;;;;;14.07;6.55;;;15.20;99.90;;;;;;7376798;19;20018;-65
2023/08/02 00:54:32;;;;;;;11.52;5.82;;;15.20;99.90;;;;;;7373592;19;20019;-66
2023/08/02 00:56:59;;;;;;;12.80;5.68;;;15.20;99.90;;;;;;7378393;19;20025;-66
2023/08/02 00:59:26;;;;;;;14.77;6.65;;;15.20;99.90;;;;;;7374555;19;20018;-65
2023/08/02 01:01:52;;;;;;;10.65;6.32;;;15.20;99.90;;;;;;7363423;19;20011;-65
2023/08/02 01:04:19;;;;;;;11.60;6.15;;;15.20;99.90;;;;;;7372093;19;20086;-65
2023/08/02 01:06:54;;;;;;;11.15;5.85;;;15.20;99.90;;;;;;7374499;19;20052;-65
2023/08/02 01:09:41;;;;;;;16.05;6.25;;;15.20;99.90;;;;;;7376085;19;20022;-65
2023/08/02 01:12:09;;;;;;;11.93;6.93;;;15.20;99.90;;;;;;7366377;19;20121;-66
2023/08/02 01:14:43;;;;;;;13.23;6.00;;;15.20;99.90;;;;;;7362381;19;20058;-65
2023/08/02 01:17:11;;;;;;;13.35;6.95;;;15.20;99.90;;;;;;7376350;19;20876;-65
2023/08/02 01:19:38;;;;;;;12.18;6.45;;;15.30;99.90;;;;;;7375680;19;20014;-66
2023/08/02 01:22:04;;;;;;;14.63;6.20;;;15.20;99.90;;;;;;7374053;19;20022;-65
2023/08/02 01:24:50;;;;;;;15.00;6.18;;;15.20;99.90;;;;;;7376835;19;20034;-66
2023/08/02 01:27:51;;;;;;;11.85;5.97;;;15.20;99.90;;;;;;7365594;19;20693;-66
2023/08/02 01:30:20;;;;;;;13.95;6.88;;;15.20;99.90;;;;;;7375588;19;20600;-66
2023/08/02 01:32:46;;;;;;;10.18;6.10;;;15.20;99.90;;;;;;7375418;19;20533;-58
2023/08/02 01:35:13;;;;;;;13.02;6.72;;;15.10;99.90;;;;;;7374685;19;20072;-58
2023/08/02 01:37:42;;;;;;;17.23;6.05;;;15.10;99.90;;;;;;7372788;19;20157;-58
2023/08/02 01:40:09;;;;;;;14.80;5.78;;;15.20;99.90;;;;;;7369934;19;20585;-58
2023/08/02 01:42:36;;;;;;;12.90;6.53;;;15.10;99.90;;;;;;7369754;19;20718;-64
2023/08/02 01:45:02;;;;;;;12.85;6.55;;;15.10;99.90;;;;;;7371355;19;20395;-65
2023/08/02 01:47:28;;;;;;;15.02;7.22;;;15.20;99.90;;;;;;7374757;19;20014;-65
2023/08/02 01:49:58;;;;;;;12.85;6.35;;;15.10;99.90;;;;;;7374421;19;20014;-66
2023/08/02 01:52:24;;;;;;;14.55;6.90;;;15.20;99.90;;;;;;7371557;19;20513;-68
2023/08/02 01:54:50;;;;;;;11.98;6.38;;;15.20;99.90;;;;;;7361402;19;20064;-66
2023/08/02 01:57:16;;;;;;;16.55;7.43;;;15.20;99.90;;;;;;7366576;19;20018;-66
2023/08/02 01:59:45;;;;;;;15.38;6.93;;;15.10;99.90;;;;;;7375049;19;20557;-65
2023/08/02 02:02:11;;;;;;;15.05;6.70;;;15.20;99.90;;;;;;7370561;19;20011;-57
2023/08/02 02:04:38;;;;;;;11.25;6.30;;;15.20;99.90;;;;;;7369881;19;20066;-65
2023/08/02 02:07:06;;;;;;;14.65;6.32;;;15.10;99.90;;;;;;7364448;19;20024;-65
2023/08/02 02:09:32;;;;;;;15.88;6.55;;;15.20;99.90;;;;;;7372381;19;20018;-65
2023/08/02 02:11:58;;;;;;;13.52;7.15;;;15.20;99.90;;;;;;7374379;19;20018;-66
2023/08/02 02:14:25;;;;;;;14.40;6.82;;;15.20;99.90;;;;;;7372192;19;20015;-65
2023/08/02 02:16:52;;;;;;;24.60;8.38;;;15.10;99.90;;;;;;7373866;19;20023;-65
2023/08/02 02:19:19;;;;;;;17.30;6.90;;;15.10;99.90;;;;;;7362732;19;20015;-65
2023/08/02 02:21:45;;;;;;;15.23;7.05;;;15.10;99.90;;;;;;7364602;19;20011;-65
2023/08/02 02:24:12;;;;;;;21.00;7.55;;;15.10;99.90;;;;;;7373591;19;20022;-66
2023/08/02 02:26:38;;;;;;;17.58;7.63;;;15.10;99.90;;;;;;7374696;19;20389;-66
2023/08/02 02:29:05;;;;;;;20.58;7.55;;;15.10;99.90;;;;;;7375709;19;20418;-66
2023/08/02 02:31:31;;;;;;;20.02;7.57;;;15.10;99.90;;;;;;7361784;19;20030;-58
2023/08/02 02:33:57;;;;;;;21.13;7.72;;;15.10;99.90;;;;;;7367709;19;20478;-59
2023/08/02 02:36:23;;;;;;;15.45;6.93;;;15.10;99.90;;;;;;7371565;19;20490;-58
2023/08/02 02:38:52;;;;;;;18.08;7.70;;;15.10;99.90;;;;;;7370500;19;20018;-58
2023/08/02 02:41:18;;;;;;;21.52;7.45;;;15.10;99.90;;;;;;7364119;19;20536;-58
2023/08/02 02:43:44;;;;;;;26.02;7.60;;;15.10;99.90;;;;;;7373226;19;20486;-57
2023/08/02 02:46:11;;;;;;;16.40;7.55;;;15.00;99.90;;;;;;7372038;19;20578;-58
2023/08/02 02:48:37;;;;;;;18.27;7.90;;;15.10;99.90;;;;;;7371869;19;20022;-58
2023/08/02 02:51:03;;;;;;;22.15;7.95;;;15.10;99.90;;;;;;7370851;19;20018;-58
2023/08/02 02:53:32;;;;;;;15.85;7.47;;;15.10;99.90;;;;;;7369544;19;20018;-58
2023/08/02 02:56:02;;;;;;;18.08;8.07;;;15.10;99.90;;;;;;7373511;19;20014;-57
2023/08/02 02:58:28;;;;;;;22.17;7.85;;;15.10;99.90;;;;;;7369751;19;20043;-58
2023/08/02 03:00:56;;;;;;;17.17;7.70;;;15.00;99.90;;;;;;7371493;19;20026;-58
2023/08/02 03:03:23;;;;;;;15.20;7.38;;;15.00;99.90;;;;;;7373221;19;20035;-58
2023/08/02 03:05:51;;;;;;;21.90;7.93;;;15.00;99.90;;;;;;7376463;19;20014;-66
2023/08/02 03:08:18;;;;;;;18.58;8.25;;;15.00;99.90;;;;;;7381405;19;20490;-66
2023/08/02 03:10:44;;;;;;;18.65;8.52;;;15.00;99.90;;;;;;7378156;19;20494;-66
2023/08/02 03:13:10;;;;;;;21.15;8.32;;;14.90;99.90;;;;;;7376640;19;20506;-67
2023/08/02 03:15:36;;;;;;;20.40;8.32;;;14.90;99.90;;;;;;7379712;19;20086;-58
2023/08/02 03:18:02;;;;;;;18.40;8.02;;;14.90;99.90;;;;;;7376938;19;20026;-58
2023/08/02 03:20:29;;;;;;;16.83;7.72;;;14.90;99.90;;;;;;7374140;19;20024;-58
2023/08/02 03:22:58;;;;;;;15.75;8.38;;;14.90;99.90;;;;;;7375879;19;20371;-59
2023/08/02 03:25:25;;;;;;;16.67;7.85;;;14.90;99.90;;;;;;7373908;19;20386;-58
2023/08/02 03:27:51;;;;;;;21.08;8.80;;;14.80;99.90;;;;;;7375135;19;20027;-58
2023/08/02 03:30:17;;;;;;;14.02;7.38;;;14.80;99.90;;;;;;7379906;19;20018;-59
2023/08/02 03:32:43;;;;;;;18.83;8.18;;;14.80;99.90;;;;;;7377036;19;20440;-58
2023/08/02 03:35:09;;;;;;;15.55;7.93;;;14.70;99.90;;;;;;7377191;19;20019;-59
2023/08/02 03:37:36;;;;;;;14.63;8.07;;;14.60;99.90;;;;;;7376191;19;20014;-59
2023/08/02 03:40:02;;;;;;;16.58;8.63;;;14.60;99.90;;;;;;7377348;19;20370;-58
2023/08/02 03:42:28;;;;;;;16.02;9.70;;;14.60;99.90;;;;;;7374349;19;20024;-58
2023/08/02 03:45:15;;;;;;;15.43;9.18;;;14.50;99.90;;;;;;7373583;19;20022;-58
2023/08/02 03:47:41;;;;;;;16.98;9.05;;;14.50;99.90;;;;;;7374364;19;20046;-59
2023/08/02 03:50:07;;;;;;;18.08;9.43;;;14.40;99.90;;;;;;7376264;19;20025;-58
2023/08/02 03:52:34;;;;;;;17.80;8.80;;;14.40;99.90;;;;;;7375266;19;20410;-58
2023/08/02 03:55:00;;;;;;;16.02;9.00;;;14.40;99.90;;;;;;7378648;19;20048;-58
2023/08/02 03:57:26;;;;;;;16.85;9.68;;;14.40;99.90;;;;;;7376006;19;20022;-60
2023/08/02 03:59:52;;;;;;;13.95;9.00;;;14.30;99.90;;;;;;7378030;19;20074;-58
2023/08/02 04:02:19;;;;;;;19.77;9.40;;;14.30;99.90;;;;;;7371059;19;20025;-65
2023/08/02 04:04:45;;;;;;;15.82;9.10;;;14.30;99.90;;;;;;7378388;19;20588;-58
2023/08/02 04:07:12;;;;;;;17.27;9.65;;;14.30;99.90;;;;;;7377017;19;20823;-59
2023/08/02 04:09:38;;;;;;;16.35;9.80;;;14.20;99.90;;;;;;7376721;19;20022;-58
2023/08/02 04:12:05;;;;;;;16.05;9.13;;;14.20;99.90;;;;;;7378711;19;20455;-58
2023/08/02 04:14:31;;;;;;;15.18;9.75;;;14.20;99.90;;;;;;7376636;19;20022;-58
2023/08/02 04:16:57;;;;;;;17.35;9.02;;;14.20;99.90;;;;;;7376640;19;20035;-58
2023/08/02 04:19:25;;;;;;;17.55;9.48;;;14.20;99.90;;;;;;7378943;19;20382;-58
2023/08/02 04:21:51;;;;;;;18.98;9.77;;;14.10;99.90;;;;;;7377088;19;20014;-66
2023/08/02 04:24:17;;;;;;;18.92;9.73;;;14.10;99.90;;;;;;7371146;19;20018;-58
2023/08/02 04:26:44;;;;;;;16.75;9.73;;;14.10;99.90;;;;;;7369427;19;20014;-60
2023/08/02 04:29:10;;;;;;;19.55;9.93;;;14.10;99.90;;;;;;7371889;19;20022;-59
2023/08/02 04:31:36;;;;;;;18.40;11.13;;;14.20;99.90;;;;;;7362054;19;20018;-59
2023/08/02 04:34:02;;;;;;;17.27;10.27;;;14.40;99.90;;;;;;7361085;19;20105;-57
2023/08/02 04:36:33;;;;;;;15.13;9.70;;;14.40;99.90;;;;;;7370118;19;20022;-56
2023/08/02 04:39:03;;;;;;;19.35;9.85;;;14.30;99.90;;;;;;7372917;19;20014;-64
2023/08/02 04:41:32;;;;;;;18.60;9.68;;;14.30;99.90;;;;;;7369052;19;20019;-68
2023/08/02 04:43:58;;;;;;;16.60;10.93;;;14.30;99.90;;;;;;7372513;19;20033;-64
2023/08/02 04:46:29;;;;;;;18.35;9.73;;;14.30;99.90;;;;;;7369353;19;20114;-64
2023/08/02 04:48:56;;;;;;;17.63;9.95;;;14.30;99.90;;;;;;7366302;19;20015;-64
2023/08/02 04:51:22;;;;;;;15.52;8.85;;;14.30;99.90;;;;;;7371984;19;20385;-57
2023/08/02 04:53:48;;;;;;;15.68;9.90;;;14.40;99.90;;;;;;7365635;19;20480;-57
2023/08/02 04:56:16;;;;;;;14.43;9.07;;;14.30;99.90;;;;;;7371187;19;20837;-57
2023/08/02 04:58:42;;;;;;;19.73;10.48;;;14.40;99.90;;;;;;7372301;19;20015;-64
2023/08/02 05:01:09;;;;;;;19.33;9.27;;;14.40;99.90;;;;;;7371529;19;20029;-64
2023/08/02 05:03:36;;;;;;;16.00;10.15;;;14.40;99.90;;;;;;7367404;19;20034;-64
2023/08/02 05:06:03;;;;;;;17.13;10.23;;;14.40;99.90;;;;;;7370509;19;20018;-57
2023/08/02 05:08:32;;;;;;;12.80;8.48;;;14.50;99.90;;;;;;7368422;19;20029;-56
2023/08/02 05:10:59;;;;;;;16.85;9.52;;;14.40;99.90;;;;;;7368945;19;20485;-64
2023/08/02 05:13:26;;;;;;;17.00;9.45;;;14.50;99.90;;;;;;7370636;19;20541;-65
2023/08/02 05:15:55;;;;;;;17.77;10.80;;;14.60;99.90;;;;;;7366701;19;20048;-64
2023/08/02 05:18:22;;;;;;;16.65;9.57;;;14.60;99.90;;;;;;7366181;19;20026;-66
2023/08/02 05:20:48;;;;;;;14.02;9.23;;;14.60;99.90;;;;;;7367054;19;20013;-63
2023/08/02 05:23:15;;;;;;;14.43;9.90;;;14.70;99.90;;;;;;7370401;19;20022;-63
2023/08/02 05:25:42;;;;;;;15.55;9.75;;;14.80;99.90;;;;;;7365349;19;21225;-63
2023/08/02 05:28:08;;;;;;;15.38;8.80;;;14.80;99.90;;;;;;7364176;19;20021;-63
2023/08/02 05:30:37;;;;;;;13.82;9.02;;;14.90;99.90;;;;;;7363569;19;20022;-63
2023/08/02 05:33:06;;;;;;;14.02;9.40;;;15.00;99.90;;;;;;7369887;19;20298;-63
2023/08/02 05:35:33;;;;;;;16.65;8.40;;;15.10;99.90;;;;;;7365920;19;20564;-63
2023/08/02 05:37:59;;;;;;;12.25;8.15;;;15.20;99.90;;;;;;7372507;19;20516;-63
2023/08/02 05:40:25;;;;;;;15.30;8.25;;;15.20;99.90;;;;;;7367028;19;20104;-56
2023/08/02 05:42:52;;;;;;;14.07;7.97;;;15.30;99.90;;;;;;7371217;19;20561;-56
2023/08/02 05:45:18;;;;;;;15.18;8.10;;;15.30;99.90;;;;;;7366793;19;20015;-56
2023/08/02 05:47:44;;;;;;;13.20;7.88;;;15.40;99.90;;;;;;7373855;19;20022;-56
2023/08/02 05:50:10;;;;;;;14.85;7.07;;;15.50;99.90;;;;;;7372938;19;20035;-56
2023/08/02 05:52:36;;;;;;;13.73;7.43;;;15.70;99.90;;;;;;7365712;19;20038;-56
2023/08/02 05:55:03;;;;;;;11.00;7.35;;;15.70;99.90;;;;;;7366709;19;20450;-56
2023/08/02 05:57:29;;;;;;;11.35;6.35;;;16.00;99.90;;;;;;7371357;19;20033;-56
2023/08/02 05:59:56;;;;;;;11.23;6.50;;;16.20;99.90;;;;;;7369406;19;20011;-56
2023/08/02 06:02:22;;;;;;;11.30;6.07;;;16.40;99.90;;;;;;7367265;19;20023;-56
2023/08/02 06:04:48;;;;;;;13.32;7.30;;;16.30;99.90;;;;;;7367342;19;20018;-56
2023/08/02 06:07:14;;;;;;;11.82;7.50;;;16.20;99.90;;;;;;7371050;19;20334;-57
2023/08/02 06:09:41;;;;;;;11.57;6.15;;;16.30;99.90;;;;;;7371792;19;20015;-56
2023/08/02 06:12:08;;;;;;;9.98;6.07;;;16.40;99.90;;;;;;7374156;19;20486;-58
2023/08/02 06:14:34;;;;;;;11.48;7.03;;;16.40;99.90;;;;;;7372255;19;20492;-58
2023/08/02 06:17:00;;;;;;;11.13;6.55;;;16.40;99.90;;;;;;7372219;19;20015;-57
2023/08/02 06:19:26;;;;;;;10.27;6.40;;;16.30;99.90;;;;;;7373871;19;20038;-58
2023/08/02 06:21:53;;;;;;;15.80;6.75;;;16.40;99.90;;;;;;7368849;19;20017;-58
2023/08/02 06:24:21;;;;;;;12.85;6.03;;;16.40;99.90;;;;;;7373011;19;20010;-58
2023/08/02 06:26:47;;;;;;;12.52;5.55;;;16.40;99.90;;;;;;7370986;19;20019;-58
2023/08/02 06:29:14;;;;;;;10.05;5.97;;;16.40;99.90;;;;;;7373826;19;20014;-58
2023/08/02 06:31:40;;;;;;;9.95;5.63;;;16.40;99.90;;;;;;7365600;19;20042;-58
2023/08/02 06:34:06;;;;;;;10.93;5.88;;;16.40;99.90;;;;;;7371411;19;20029;-58
2023/08/02 06:36:33;;;;;;;9.02;6.10;;;16.40;99.90;;;;;;7369462;19;20026;-58
2023/08/02 06:38:59;;;;;;;12.82;6.80;;;16.40;99.90;;;;;;7372296;19;20371;-57
2023/08/02 06:41:26;;;;;;;85.82;76.60;;;16.40;99.90;;;;;;7374632;19;20633;-58
2023/08/02 06:43:52;;;;;;;226.48;202.45;;;16.60;99.90;;;;;;7377078;19;20370;-60
2023/08/02 06:46:18;;;;;;;44.97;38.55;;;16.60;99.90;;;;;;7375711;19;20398;-59
2023/08/02 06:48:44;;;;;;;30.70;21.17;;;16.60;99.90;;;;;;7376461;19;20026;-62
2023/08/02 06:51:12;;;;;;;17.95;13.30;;;16.60;99.90;;;;;;7379563;19;20039;-63
2023/08/02 06:53:38;;;;;;;28.20;18.95;;;16.60;99.90;;;;;;7376097;19;20621;-63
2023/08/02 06:56:17;;;;;;;12.75;5.18;;;16.60;99.90;;;;;;7374730;19;20018;-62
2023/08/02 06:58:44;;;;;;;20.55;10.85;;;16.40;99.90;;;;;;7375778;19;20015;-62
2023/08/02 07:01:12;;;;;;;14.85;7.78;;;16.50;99.90;;;;;;7376983;19;20512;-62
2023/08/02 07:03:38;;;;;;;10.13;6.57;;;16.40;99.90;;;;;;7375220;19;20094;-62
2023/08/02 07:06:09;;;;;;;10.85;6.45;;;16.40;99.90;;;;;;7377064;19;20043;-64
2023/08/02 07:08:37;;;;;;;14.20;7.95;;;16.40;99.90;;;;;;7374480;19;20600;-65
2023/08/02 07:11:05;;;;;;;12.52;5.60;;;16.40;99.90;;;;;;7374949;19;20890;-65
2023/08/02 07:13:33;;;;;;;11.10;6.05;;;16.40;99.90;;;;;;7377109;19;20018;-67
2023/08/02 07:16:00;;;;;;;61.78;55.05;;;16.40;99.90;;;;;;7375194;19;20469;-64
2023/08/02 07:18:26;;;;;;;17.27;13.85;;;16.50;99.90;;;;;;7378380;19;20014;-63
2023/08/02 07:20:53;;;;;;;18.23;10.55;;;16.50;99.90;;;;;;7376615;19;20014;-63
2023/08/02 07:23:19;;;;;;;28.75;24.42;;;16.50;99.90;;;;;;7376320;19;20026;-63
2023/08/02 07:25:45;;;;;;;15.82;10.88;;;16.50;99.90;;;;;;7373210;19;20038;-63
2023/08/02 07:28:11;;;;;;;23.13;17.50;;;16.50;99.90;;;;;;7373838;19;20402;-63
2023/08/02 07:30:38;;;;;;;15.18;7.57;;;16.50;99.90;;;;;;7375903;19;20094;-63
2023/08/02 07:33:04;;;;;;;13.00;6.22;;;16.50;99.90;;;;;;7376771;19;20018;-63
2023/08/02 07:35:36;;;;;;;16.05;10.10;;;16.40;99.90;;;;;;7375342;19;20055;-62
2023/08/02 07:38:02;;;;;;;16.15;7.15;;;16.30;99.90;;;;;;7377380;19;20450;-63
2023/08/02 07:40:29;;;;;;;12.93;7.20;;;16.30;99.90;;;;;;7377475;19;20029;-62
2023/08/02 07:42:55;;;;;;;13.55;6.70;;;16.10;99.90;;;;;;7375985;19;20469;-63
2023/08/02 07:45:22;;;;;;;15.50;7.28;;;16.00;99.90;;;;;;7371628;19;20041;-64
2023/08/02 07:47:48;;;;;;;14.43;7.22;;;15.90;99.90;;;;;;7371508;19;20026;-63
2023/08/02 07:50:14;;;;;;;14.38;8.23;;;15.80;99.90;;;;;;7374134;19;20022;-59
2023/08/02 07:52:40;;;;;;;14.10;7.00;;;15.80;99.90;;;;;;7375119;19;20360;-63
2023/08/02 07:55:07;;;;;;;11.95;6.90;;;15.70;99.90;;;;;;7374392;19;20038;-60
2023/08/02 07:57:34;;;;;;;15.23;7.20;;;15.60;99.90;;;;;;7369354;19;20026;-60
2023/08/02 08:00:01;;;;;;;20.25;8.00;;;15.60;99.90;;;;;;7375800;19;20355;-60
2023/08/02 08:02:27;;;;;;;12.57;6.95;;;15.50;99.90;;;;;;7373133;19;20537;-60
2023/08/02 08:04:54;;;;;;;18.30;7.38;;;15.50;99.90;;;;;;7376811;19;20597;-60
2023/08/02 08:07:21;;;;;;;17.15;7.47;;;15.50;99.90;;;;;;7375468;19;20014;-63
2023/08/02 08:09:50;;;;;;;16.38;7.45;;;15.50;99.90;;;;;;7375749;19;20506;-63
2023/08/02 08:12:17;;;;;;;15.88;8.15;;;15.50;99.90;;;;;;7372383;19;20018;-63
2023/08/02 08:14:44;;;;;;;118.85;106.40;;;15.50;99.90;;;;;;7371500;19;20086;-64
2023/08/02 08:17:10;;;;;;;34.00;26.10;;;15.50;99.90;;;;;;7371751;19;20019;-60
2023/08/02 08:19:36;;;;;;;23.55;10.70;;;15.40;99.90;;;;;;7372783;19;20026;-61
2023/08/02 08:22:04;;;;;;;31.60;21.67;;;15.40;99.90;;;;;;7372222;19;20041;-61
2023/08/02 08:24:30;;;;;;;22.10;15.02;;;15.40;99.90;;;;;;7375711;19;20017;-61
2023/08/02 08:26:56;;;;;;;26.95;17.75;;;15.40;99.90;;;;;;7372463;19;20018;-61
2023/08/02 08:29:23;;;;;;;27.92;16.90;;;15.50;99.90;;;;;;7376849;19;20569;-61
2023/08/02 08:31:49;;;;;;;14.50;7.78;;;15.50;99.90;;;;;;7372491;19;20025;-61
2023/08/02 08:34:15;;;;;;;16.90;8.75;;;15.50;99.90;;;;;;7376050;19;20038;-61
2023/08/02 08:36:42;;;;;;;14.55;8.00;;;15.50;99.90;;;;;;7375367;19;20519;-64
2023/08/02 08:39:08;;;;;;;15.57;9.90;;;15.50;99.90;;;;;;7374394;19;20025;-64
2023/08/02 08:41:35;;;;;;;16.02;6.75;;;15.50;99.90;;;;;;7375038;19;20033;-65
2023/08/02 08:44:02;;;;;;;128.52;114.22;;;15.60;99.90;;;;;;7373292;19;20018;-61
2023/08/02 08:46:31;;;;;;;23.83;16.45;;;15.60;99.90;;;;;;7374711;19;20360;-61
2023/08/02 08:49:02;;;;;;;23.92;17.85;;;15.80;99.90;;;;;;7374141;19;20050;-61
2023/08/02 08:51:33;;;;;;;35.88;27.88;;;15.80;99.90;;;;;;7373247;19;21776;-60
2023/08/02 08:54:05;;;;;;;23.75;16.20;;;15.80;99.90;;;;;;7377392;19;20022;-61
2023/08/02 08:56:38;;;;;;;14.02;9.38;;;15.80;99.90;;;;;;7373035;19;20819;-61
2023/08/02 08:59:05;;;;;;;14.95;10.00;;;15.80;99.90;;;;;;7373958;19;20019;-60
2023/08/02 09:01:32;;;;;;;16.38;9.80;;;15.90;99.90;;;;;;7372440;19;20011;-60
2023/08/02 09:04:01;;;;;;;19.77;12.25;;;15.90;99.90;;;;;;7371975;19;20025;-61
2023/08/02 09:06:29;;;;;;;15.63;9.75;;;15.90;99.90;;;;;;7374937;19;20495;-60
2023/08/02 09:08:57;;;;;;;20.92;10.60;;;15.80;99.90;;;;;;7370671;19;20028;-60
2023/08/02 09:11:25;;;;;;;18.65;9.85;;;15.80;99.90;;;;;;7375695;19;20015;-60
2023/08/02 09:14:12;;;;;;;16.67;9.25;;;15.80;99.90;;;;;;7372327;19;20050;-60
2023/08/02 09:17:02;;;;;;;23.45;10.88;;;15.80;99.90;;;;;;7369630;19;20022;-63
2023/08/02 09:19:34;;;;;;;62.20;51.45;;;15.70;99.90;;;;;;7371614;19;20034;-64
2023/08/02 09:22:27;;;;;;;23.58;12.93;;;15.70;99.90;;;;;;7371453;19;20014;-61
2023/08/02 09:24:53;;;;;;;29.08;21.67;;;15.80;99.90;;;;;;7370000;19;20355;-65
2023/08/02 09:27:20;;;;;;;17.42;12.90;;;15.80;99.90;;;;;;7371354;19;20399;-62
2023/08/02 09:29:50;;;;;;;18.25;11.18;;;16.00;99.90;;;;;;7368681;19;20077;-60
2023/08/02 09:32:18;;;;;;;18.00;11.27;;;16.10;99.90;;;;;;7371375;19;20018;-61
2023/08/02 09:34:48;;;;;;;13.45;9.48;;;16.10;99.90;;;;;;7369102;19;20018;-61
2023/08/02 09:37:16;;;;;;;25.98;23.25;;;16.20;99.90;;;;;;7373666;19;20481;-60
2023/08/02 09:39:50;;;;;;;18.27;15.02;;;16.30;99.90;;;;;;7369153;19;20022;-61
2023/08/02 09:42:25;;;;;;;13.60;10.80;;;16.20;99.90;;;;;;7370151;19;20022;-61
2023/08/02 09:44:56;;;;;;;17.80;12.73;;;16.20;99.90;;;;;;7370708;19;20025;-61
2023/08/02 09:47:23;;;;;;;19.75;15.52;;;16.30;99.90;;;;;;7368979;19;20046;-61
2023/08/02 09:50:06;;;;;;;13.88;10.27;;;16.30;99.90;;;;;;7367885;19;20033;-63
2023/08/02 09:52:34;;;;;;;13.27;9.77;;;16.30;99.90;;;;;;7373494;19;20047;-62
2023/08/02 09:55:00;;;;;;;11.18;8.98;;;16.30;99.90;;;;;;7373759;19;20383;-63
2023/08/02 09:57:31;;;;;;;12.88;10.38;;;16.30;99.90;;;;;;7371960;19;20509;-63
2023/08/02 10:00:07;;;;;;;13.02;10.57;;;16.30;99.90;;;;;;7371971;19;20022;-63
2023/08/02 10:02:46;;;;;;;12.32;10.02;;;16.30;99.90;;;;;;7370739;19;20014;-62
2023/08/02 10:05:13;;;;;;;10.38;8.63;;;16.30;99.90;;;;;;7373554;19;20132;-63
2023/08/02 10:07:41;;;;;;;19.92;17.63;;;16.40;99.90;;;;;;7368782;19;20593;-63
2023/08/02 10:10:18;;;;;;;9.63;6.85;;;16.40;99.90;;;;;;7370447;19;20106;-65
2023/08/02 10:12:52;;;;;;;11.27;8.15;;;16.40;99.90;;;;;;7370001;19;20022;-63
2023/08/02 10:15:19;;;;;;;15.60;13.98;;;16.40;99.90;;;;;;7369924;19;20033;-64
2023/08/02 10:17:47;;;;;;;13.65;9.82;;;16.40;99.90;;;;;;7370122;19;20018;-63
2023/08/02 10:20:14;;;;;;;8.15;6.20;;;16.50;99.90;;;;;;7371013;19;20029;-63
2023/08/02 10:22:41;;;;;;;8.80;5.57;;;16.50;99.90;;;;;;7366129;19;20014;-63
2023/08/02 10:25:08;;;;;;;7.60;5.70;;;16.60;99.90;;;;;;7371571;19;20921;-63
2023/08/02 10:27:36;;;;;;;7.32;5.25;;;16.60;99.90;;;;;;7371789;19;20018;-63
2023/08/02 10:30:05;;;;;;;7.55;5.22;;;16.70;99.90;;;;;;7372447;19;20372;-63
2023/08/02 10:32:32;;;;;;;7.00;5.00;;;16.70;99.90;;;;;;7370562;19;20026;-63
2023/08/02 10:34:59;;;;;;;4.93;4.20;;;16.70;99.90;;;;;;7369483;19;20018;-63
2023/08/02 10:37:54;;;;;;;6.50;4.53;;;16.70;99.90;;;;;;7368026;19;20026;-62
2023/08/02 10:40:21;;;;;;;8.60;4.15;;;16.60;99.90;;;;;;7368911;19;20026;-63
2023/08/02 10:43:17;;;;;;;6.15;4.13;;;16.60;99.90;;;;;;7364930;19;20018;-62
2023/08/02 10:45:43;;;;;;;7.68;4.43;;;16.60;99.90;;;;;;7367925;19;20014;-62
2023/08/02 10:48:27;;;;;;;5.68;4.18;;;16.70;99.90;;;;;;7369492;19;20018;-62
2023/08/02 10:50:53;;;;;;;5.60;4.43;;;16.70;99.90;;;;;;7368580;19;20019;-62
2023/08/02 10:53:20;;;;;;;8.25;4.43;;;16.80;99.90;;;;;;7370060;19;20038;-62
2023/08/02 10:56:09;;;;;;;4.78;3.72;;;16.90;99.90;;;;;;7366661;19;20473;-62
2023/08/02 10:58:51;;;;;;;7.55;4.00;;;16.90;99.90;;;;;;7368307;19;20011;-62
2023/08/02 11:01:18;;;;;;;4.40;3.60;;;17.00;99.90;;;;;;7370467;19;20126;-62
2023/08/02 11:03:45;;;;;;;4.97;3.97;;;17.10;99.90;;;;;;7370747;19;20078;-62
2023/08/02 11:06:26;;;;;;;4.90;3.50;;;17.30;99.90;;;;;;7368205;19;20022;-62
2023/08/02 11:08:52;;;;;;;127.25;114.80;;;17.30;99.90;;;;;;7369348;19;20014;-61
2023/08/02 11:11:29;;;;;;;38.92;34.83;;;17.30;99.90;;;;;;7373161;19;20035;-63
2023/08/02 11:13:56;;;;;;;17.02;15.27;;;17.30;99.90;;;;;;7371515;19;20035;-62
2023/08/02 11:16:22;;;;;;;19.10;17.00;;;17.20;99.90;;;;;;7371067;19;20019;-61
2023/08/02 11:18:49;;;;;;;8.23;7.15;;;17.30;99.90;;;;;;7365966;19;20521;-61
2023/08/02 11:21:16;;;;;;;9.00;7.05;;;17.20;99.90;;;;;;7369578;19;20062;-63
2023/08/02 11:23:42;;;;;;;32.22;28.80;;;17.30;99.90;;;;;;7366645;19;20670;-61
2023/08/02 11:26:11;;;;;;;117.93;106.15;;;17.30;99.90;;;;;;7372427;19;20022;-62
2023/08/02 11:28:48;;;;;;;6.13;4.57;;;17.40;99.90;;;;;;7373150;19;20026;-63
2023/08/02 11:31:15;;;;;;;5.15;4.13;;;17.50;99.90;;;;;;7376610;19;20473;-63
2023/08/02 11:33:42;;;;;;;6.10;4.85;;;17.50;99.90;;;;;;7374314;19;20049;-63
2023/08/02 11:36:08;;;;;;;6.43;3.85;;;17.50;99.90;;;;;;7374615;19;20026;-63
2023/08/02 11:38:38;;;;;;;4.72;2.85;;;17.50;99.90;;;;;;7372455;19;20027;-63
2023/08/02 11:41:19;;;;;;;4.65;3.50;;;17.80;99.90;;;;;;7375638;19;20025;-63
2023/08/02 11:43:46;;;;;;;4.07;3.40;;;18.00;99.90;;;;;;7376634;19;20015;-64
2023/08/02 11:46:26;;;;;;;6.55;4.63;;;18.40;99.90;;;;;;7376279;19;20046;-63
2023/08/02 11:48:53;;;;;;;5.45;4.55;;;18.80;99.90;;;;;;7371416;19;20019;-63
2023/08/02 11:51:21;;;;;;;4.38;3.97;;;19.40;99.90;;;;;;7376602;19;20031;-64
2023/08/02 11:53:52;;;;;;;3.67;3.00;;;19.70;99.90;;;;;;7374860;19;20585;-63
2023/08/02 11:56:20;;;;;;;6.28;5.65;;;19.90;99.90;;;;;;7376316;19;20014;-65
2023/08/02 11:58:48;;;;;;;8.60;7.55;;;20.10;99.90;;;;;;7374221;19;20322;-64
2023/08/02 12:01:14;;;;;;;5.75;4.97;;;20.40;99.90;;;;;;7376417;19;20046;-64
2023/08/02 12:04:01;;;;;;;12.00;10.85;;;20.40;99.90;;;;;;7376300;19;20061;-64
2023/08/02 12:06:43;;;;;;;10.43;9.15;;;20.40;99.90;;;;;;7379115;19;20018;-64
2023/08/02 12:09:09;;;;;;;17.85;16.02;;;20.20;99.90;;;;;;7375112;19;20871;-63
2023/08/02 12:11:36;;;;;;;6.55;5.85;;;20.20;99.90;;;;;;7373298;19;20033;-64
2023/08/02 12:14:02;;;;;;;6.30;4.10;;;20.10;99.90;;;;;;7373332;19;20034;-63
2023/08/02 12:16:43;;;;;;;11.10;10.00;;;20.00;99.90;;;;;;7375495;19;20050;-62
2023/08/02 12:19:13;;;;;;;23.67;21.40;;;20.10;99.90;;;;;;7377184;19;20018;-62
2023/08/02 12:21:39;;;;;;;9.77;8.73;;;20.20;99.90;;;;;;7374283;19;20026;-62
2023/08/02 12:24:16;;;;;;;15.52;13.98;;;20.40;99.90;;;;;;7375545;19;20014;-62
2023/08/02 12:26:43;;;;;;;7.57;6.88;;;20.50;99.90;;;;;;7373725;19;20465;-63
2023/08/02 12:29:21;;;;;;;17.38;15.63;;;20.50;99.90;;;;;;7374429;19;20022;-62
2023/08/02 12:31:48;;;;;;;5.88;5.32;;;20.70;99.90;;;;;;7373277;19;20014;-62
2023/08/02 12:34:14;;;;;;;6.13;5.43;;;21.10;99.90;;;;;;7373783;19;20014;-62
2023/08/02 12:36:40;;;;;;;4.55;4.15;;;21.30;99.90;;;;;;7374086;19;20078;-62
2023/08/02 12:39:09;;;;;;;10.50;9.48;;;21.40;99.90;;;;;;7372204;19;20023;-62
2023/08/02 12:41:36;;;;;;;7.43;6.53;;;21.70;99.90;;;;;;7370180;19;20020;-61